createdAt,value
2018-04-30T00:00:19.856Z,8.23
2018-04-30T00:02:47.379Z,10.57
2018-04-30T00:05:15.150Z,10.53
2018-04-30T00:07:42.664Z,10.07
2018-04-30T00:10:10.193Z,10.57
2018-04-30T00:12:37.832Z,10.23
2018-04-30T00:15:05.376Z,8.53
2018-04-30T00:17:32.916Z,11.53
2018-04-30T00:20:00.435Z,7.50
2018-04-30T00:22:27.962Z,8.97
2018-04-30T00:24:55.492Z,10.17
2018-04-30T00:27:23.022Z,13.50
2018-04-30T00:29:50.544Z,8.77
2018-04-30T00:32:18.077Z,8.23
2018-04-30T00:34:45.590Z,10.00
2018-04-30T00:37:13.225Z,10.00
2018-04-30T00:39:40.748Z,11.07
2018-04-30T00:42:08.347Z,9.83
2018-04-30T00:44:35.864Z,9.90
2018-04-30T00:47:03.393Z,9.83
2018-04-30T00:49:31.027Z,10.67
2018-04-30T00:51:58.551Z,9.17
2018-04-30T00:54:37.758Z,10.20
2018-04-30T00:57:05.295Z,11.23
2018-04-30T00:59:32.937Z,11.33
2018-04-30T01:02:00.465Z,11.17
2018-04-30T01:04:27.980Z,11.07
2018-04-30T01:06:55.614Z,11.77
2018-04-30T01:09:23.136Z,11.53
2018-04-30T01:11:50.668Z,12.77
2018-04-30T01:14:18.298Z,12.43
2018-04-30T01:16:45.827Z,10.70
2018-04-30T01:19:13.384Z,14.43
2018-04-30T01:21:40.900Z,13.07
2018-04-30T01:24:08.463Z,12.13
2018-04-30T01:26:36.010Z,12.23
2018-04-30T01:29:03.541Z,11.27
2018-04-30T01:31:31.068Z,12.10
2018-04-30T01:33:58.591Z,11.53
2018-04-30T01:36:26.104Z,16.10
2018-04-30T01:38:53.647Z,10.73
2018-04-30T01:41:21.239Z,11.50
2018-04-30T01:43:48.774Z,13.17
2018-04-30T01:46:16.302Z,13.73
2018-04-30T01:48:43.826Z,11.57
2018-04-30T01:51:11.490Z,14.33
2018-04-30T01:53:39.013Z,12.57
2018-04-30T01:56:06.547Z,12.90
2018-04-30T01:58:34.081Z,14.00
2018-04-30T02:01:01.604Z,15.77
2018-04-30T02:03:29.195Z,14.37
2018-04-30T02:05:56.755Z,17.20
2018-04-30T02:08:24.281Z,18.17
2018-04-30T02:10:51.802Z,14.50
2018-04-30T02:13:19.326Z,18.00
2018-04-30T02:15:46.857Z,19.30
2018-04-30T02:18:14.384Z,16.37
2018-04-30T02:20:41.907Z,18.60
2018-04-30T02:23:09.434Z,17.37
2018-04-30T02:25:37.026Z,18.40
2018-04-30T02:28:04.540Z,19.87
2018-04-30T02:30:32.148Z,18.03
2018-04-30T02:32:59.675Z,18.87
2018-04-30T02:35:27.193Z,14.93
2018-04-30T02:37:54.727Z,17.80
2018-04-30T02:40:22.248Z,17.33
2018-04-30T02:42:49.788Z,20.03
2018-04-30T02:45:17.324Z,17.50
2018-04-30T02:47:44.959Z,17.17
2018-04-30T02:50:12.485Z,17.20
2018-04-30T02:52:40.009Z,21.50
2018-04-30T02:55:07.527Z,16.60
2018-04-30T02:57:35.036Z,20.63
2018-04-30T03:00:02.562Z,16.87
2018-04-30T03:02:30.090Z,18.50
2018-04-30T03:04:57.664Z,20.53
2018-04-30T03:07:25.188Z,18.03
2018-04-30T03:09:52.804Z,14.93
2018-04-30T03:12:20.260Z,17.23
2018-04-30T03:14:47.840Z,20.47
2018-04-30T03:17:15.381Z,17.77
2018-04-30T03:19:42.903Z,16.10
2018-04-30T03:22:10.437Z,20.73
2018-04-30T03:24:37.963Z,17.07
2018-04-30T03:27:05.492Z,15.97
2018-04-30T03:29:33.075Z,18.17
2018-04-30T03:32:00.635Z,18.20
2018-04-30T03:34:28.176Z,19.67
2018-04-30T03:36:55.708Z,20.60
2018-04-30T03:39:23.239Z,17.97
2018-04-30T03:41:50.773Z,20.57
2018-04-30T03:44:18.295Z,17.20
2018-04-30T03:46:45.894Z,15.73
2018-04-30T03:49:13.427Z,15.50
2018-04-30T03:51:40.958Z,15.97
2018-04-30T03:54:08.492Z,15.87
2018-04-30T03:56:36.024Z,17.37
2018-04-30T03:59:03.555Z,18.30
2018-04-30T04:01:42.929Z,14.77
2018-04-30T04:07:14.965Z,17.27
2018-04-30T04:09:42.570Z,19.30
2018-04-30T04:12:10.097Z,18.47
2018-04-30T04:14:37.711Z,15.10
2018-04-30T04:17:05.184Z,15.87
2018-04-30T04:19:32.711Z,15.30
2018-04-30T04:22:00.241Z,14.97
2018-04-30T04:24:27.766Z,14.90
2018-04-30T04:26:55.290Z,17.83
2018-04-30T04:29:22.811Z,16.87
2018-04-30T04:31:50.335Z,14.40
2018-04-30T04:34:17.964Z,15.50
2018-04-30T04:36:45.495Z,14.13
2018-04-30T04:39:13.021Z,15.23
2018-04-30T04:41:40.720Z,14.37
2018-04-30T04:44:08.196Z,13.70
2018-04-30T04:46:35.719Z,16.03
2018-04-30T04:49:03.332Z,17.63
2018-04-30T04:51:30.842Z,15.40
2018-04-30T04:53:58.372Z,14.50
2018-04-30T04:56:25.949Z,13.90
2018-04-30T04:58:53.469Z,15.13
2018-04-30T05:01:20.991Z,16.60
2018-04-30T05:03:48.586Z,15.83
2018-04-30T05:06:16.112Z,16.70
2018-04-30T05:08:43.633Z,16.77
2018-04-30T05:11:11.170Z,13.93
2018-04-30T05:13:38.688Z,12.90
2018-04-30T05:16:06.303Z,15.73
2018-04-30T05:18:33.817Z,15.33
2018-04-30T05:21:01.360Z,17.23
2018-04-30T05:23:28.900Z,19.37
2018-04-30T05:25:56.455Z,15.10
2018-04-30T05:28:24.080Z,11.53
2018-04-30T05:30:51.640Z,16.70
2018-04-30T05:33:19.199Z,15.30
2018-04-30T05:35:46.733Z,14.33
2018-04-30T05:38:14.324Z,18.73
2018-04-30T05:40:41.884Z,11.13
2018-04-30T05:43:09.444Z,15.40
2018-04-30T05:45:36.973Z,12.90
2018-04-30T05:48:04.556Z,17.57
2018-04-30T05:50:32.049Z,18.13
2018-04-30T05:52:59.571Z,14.93
2018-04-30T05:55:27.143Z,18.23
2018-04-30T05:57:54.667Z,16.30
2018-04-30T06:00:22.201Z,16.03
2018-04-30T06:02:49.720Z,21.73
2018-04-30T06:05:17.235Z,18.03
2018-04-30T06:07:44.835Z,16.40
2018-04-30T06:10:12.367Z,14.83
2018-04-30T06:12:39.960Z,14.83
2018-04-30T06:15:07.571Z,14.10
2018-04-30T06:17:35.111Z,15.00
2018-04-30T06:20:02.582Z,18.50
2018-04-30T06:22:30.140Z,18.43
2018-04-30T06:24:57.660Z,15.67
2018-04-30T06:27:25.203Z,19.53
2018-04-30T06:29:52.716Z,15.07
2018-04-30T06:32:20.277Z,13.70
2018-04-30T06:34:47.796Z,16.20
2018-04-30T06:37:15.324Z,16.67
2018-04-30T06:39:42.849Z,15.67
2018-04-30T06:42:10.373Z,13.17
2018-04-30T06:44:37.889Z,14.63
2018-04-30T06:47:05.416Z,13.67
2018-04-30T06:49:32.952Z,14.17
2018-04-30T06:52:00.499Z,12.90
2018-04-30T06:54:28.016Z,15.37
2018-04-30T06:56:55.625Z,14.20
2018-04-30T06:59:23.153Z,14.07
2018-04-30T07:01:50.671Z,14.63
2018-04-30T07:04:18.311Z,14.27
2018-04-30T07:06:45.842Z,14.87
2018-04-30T07:09:13.406Z,13.87
2018-04-30T07:11:40.922Z,16.83
2018-04-30T07:14:08.446Z,14.80
2018-04-30T07:16:35.977Z,17.27
2018-04-30T07:19:03.496Z,15.87
2018-04-30T07:21:31.013Z,14.40
2018-04-30T07:23:58.541Z,16.43
2018-04-30T07:26:26.056Z,14.30
2018-04-30T07:28:53.586Z,17.63
2018-04-30T07:31:21.121Z,18.80
2018-04-30T07:33:48.663Z,15.87
2018-04-30T07:36:16.207Z,15.70
2018-04-30T07:38:43.728Z,15.00
2018-04-30T07:41:11.297Z,15.33
2018-04-30T07:43:38.861Z,16.20
2018-04-30T07:46:06.390Z,18.63
2018-04-30T07:48:33.912Z,13.33
2018-04-30T07:51:01.427Z,15.80
2018-04-30T07:53:28.999Z,15.17
2018-04-30T07:55:56.588Z,13.83
2018-04-30T07:58:24.121Z,15.50
2018-04-30T08:00:51.679Z,15.80
2018-04-30T08:03:19.204Z,20.57
2018-04-30T08:05:46.725Z,18.87
2018-04-30T08:08:14.359Z,14.25
2018-04-30T08:10:41.905Z,19.87
2018-04-30T08:13:09.416Z,18.45
2018-04-30T08:15:36.955Z,13.32
2018-04-30T08:18:04.496Z,17.02
2018-04-30T08:20:32.019Z,16.62
2018-04-30T08:22:59.552Z,17.15
2018-04-30T08:25:27.077Z,12.63
2018-04-30T08:27:54.616Z,14.23
2018-04-30T08:30:22.135Z,11.02
2018-04-30T08:32:49.724Z,15.57
2018-04-30T08:35:17.300Z,16.40
2018-04-30T08:37:44.824Z,13.90
2018-04-30T08:40:12.355Z,14.63
2018-04-30T08:42:39.988Z,14.32
2018-04-30T08:45:07.557Z,11.43
2018-04-30T08:47:35.073Z,11.43
2018-04-30T08:50:02.596Z,13.43
2018-04-30T08:52:30.118Z,12.45
2018-04-30T08:54:57.647Z,11.88
2018-04-30T08:57:25.172Z,11.52
2018-04-30T08:59:52.697Z,14.10
2018-04-30T09:02:20.221Z,10.23
2018-04-30T09:04:47.747Z,12.73
2018-04-30T09:07:15.267Z,10.45
2018-04-30T09:09:42.926Z,10.52
2018-04-30T09:12:10.397Z,8.45
2018-04-30T09:14:37.919Z,10.38
2018-04-30T09:17:05.445Z,11.43
2018-04-30T09:19:32.963Z,16.17
2018-04-30T09:22:00.477Z,9.23
2018-04-30T09:24:27.987Z,15.50
2018-04-30T09:26:55.504Z,16.55
2018-04-30T09:29:23.020Z,12.37
2018-04-30T09:31:50.544Z,12.45
2018-04-30T09:34:18.067Z,9.98
2018-04-30T09:36:45.627Z,10.75
2018-04-30T09:39:13.159Z,14.48
2018-04-30T09:41:40.731Z,10.65
2018-04-30T09:44:08.242Z,11.00
2018-04-30T09:46:35.764Z,7.22
2018-04-30T09:49:03.334Z,12.57
2018-04-30T09:51:30.848Z,11.10
2018-04-30T09:53:58.381Z,11.93
2018-04-30T09:56:25.902Z,7.90
2018-04-30T09:58:53.428Z,15.98
2018-04-30T10:01:20.938Z,8.90
2018-04-30T10:03:48.476Z,12.43
2018-04-30T10:06:15.996Z,9.07
2018-04-30T10:08:43.528Z,11.95
2018-04-30T10:11:11.054Z,11.07
2018-04-30T10:13:38.582Z,11.40
2018-04-30T10:16:06.115Z,12.95
2018-04-30T10:18:33.633Z,12.25
2018-04-30T10:21:01.147Z,10.88
2018-04-30T10:23:28.719Z,16.92
2018-04-30T10:25:56.235Z,11.00
2018-04-30T10:28:23.767Z,18.10
2018-04-30T10:30:51.403Z,7.78
2018-04-30T10:33:18.923Z,9.07
2018-04-30T10:35:46.520Z,10.60
2018-04-30T10:38:14.032Z,8.70
2018-04-30T10:40:41.569Z,14.63
2018-04-30T10:43:09.084Z,9.10
2018-04-30T10:45:36.594Z,9.27
2018-04-30T10:48:04.631Z,10.17
2018-04-30T10:50:32.147Z,8.77
2018-04-30T10:52:59.684Z,7.53
2018-04-30T10:55:27.211Z,5.77
2018-04-30T10:57:54.735Z,8.40
2018-04-30T11:00:22.330Z,13.23
2018-04-30T11:02:49.856Z,6.87
2018-04-30T11:05:17.379Z,13.83
2018-04-30T11:07:44.891Z,4.33
2018-04-30T11:10:12.409Z,9.47
2018-04-30T11:12:39.937Z,9.50
2018-04-30T11:15:07.448Z,9.60
2018-04-30T11:17:34.968Z,7.40
2018-04-30T11:20:02.484Z,5.40
2018-04-30T11:22:29.987Z,7.40
2018-04-30T11:24:57.520Z,7.93
2018-04-30T11:27:25.049Z,7.03
2018-04-30T11:29:52.565Z,5.40
2018-04-30T11:32:20.099Z,13.20
2018-04-30T11:34:47.625Z,25.63
2018-04-30T11:37:15.219Z,8.27
2018-04-30T11:39:42.748Z,12.93
2018-04-30T11:42:10.291Z,4.50
2018-04-30T11:44:37.898Z,6.90
2018-04-30T11:47:05.496Z,9.73
2018-04-30T11:49:32.959Z,11.20
2018-04-30T11:52:00.580Z,5.23
2018-04-30T13:10:25.183Z,6.93
2018-04-30T13:12:52.724Z,3.47
2018-04-30T13:15:20.286Z,1.60
2018-04-30T13:17:47.904Z,4.90
2018-04-30T13:20:15.435Z,5.10
2018-04-30T13:22:42.951Z,4.87
2018-04-30T13:25:10.475Z,1.70
2018-04-30T13:27:37.997Z,5.90
2018-04-30T13:30:05.519Z,5.33
2018-04-30T13:32:33.130Z,3.40
2018-04-30T13:35:00.648Z,8.17
2018-04-30T13:37:28.245Z,3.80
2018-04-30T13:39:55.762Z,9.23
2018-04-30T13:42:23.295Z,4.53
2018-04-30T13:44:50.808Z,8.30
2018-04-30T13:47:18.420Z,1.30
2018-04-30T13:49:46.051Z,2.30
2018-04-30T13:52:13.592Z,1.03
2018-04-30T13:54:41.257Z,10.97
2018-04-30T13:57:09.757Z,7.87
2018-04-30T13:59:37.417Z,2.97
2018-04-30T14:02:04.947Z,8.90
2018-04-30T14:04:32.533Z,2.40
2018-04-30T14:07:00.093Z,4.07
2018-04-30T14:09:27.619Z,2.57
2018-04-30T14:11:55.145Z,4.90
2018-04-30T14:14:22.778Z,6.90
2018-04-30T14:16:50.293Z,8.80
2018-04-30T14:19:17.823Z,10.63
2018-04-30T14:21:45.338Z,3.73
2018-04-30T14:24:12.884Z,3.20
2018-04-30T14:26:40.411Z,3.47
2018-04-30T14:29:07.934Z,2.23
2018-04-30T14:31:35.557Z,4.70
2018-04-30T14:34:03.155Z,2.70
2018-04-30T14:36:30.679Z,3.50
2018-04-30T14:38:58.230Z,7.40
2018-04-30T14:41:25.755Z,2.43
2018-04-30T14:43:53.258Z,5.03
2018-04-30T14:46:20.853Z,1.07
2018-04-30T14:48:49.467Z,1.20
2018-04-30T14:51:17.159Z,2.43
2018-04-30T14:53:44.658Z,3.80
2018-04-30T14:56:12.171Z,3.13
2018-04-30T14:58:39.705Z,5.73
2018-04-30T15:01:07.338Z,2.83
2018-04-30T15:03:34.895Z,1.10
2018-04-30T15:06:02.408Z,2.77
2018-04-30T15:08:29.948Z,0.83
2018-04-30T15:10:57.479Z,2.17
2018-04-30T15:13:25.064Z,3.60
2018-04-30T15:15:52.579Z,1.27
2018-04-30T15:18:20.170Z,1.30
2018-04-30T15:20:47.672Z,6.43
2018-04-30T15:23:15.232Z,3.00
2018-04-30T15:25:42.769Z,2.17
2018-04-30T15:28:10.513Z,4.63
2018-04-30T15:30:37.954Z,2.27
2018-04-30T15:33:05.468Z,4.13
2018-04-30T15:35:32.996Z,1.97
2018-04-30T15:38:00.533Z,6.40
2018-04-30T15:40:28.096Z,2.50
2018-04-30T15:42:55.611Z,6.53
2018-04-30T15:45:23.138Z,4.10
2018-04-30T15:47:50.660Z,6.03
2018-04-30T15:50:18.180Z,2.53
2018-04-30T15:52:45.696Z,7.57
2018-04-30T15:55:13.204Z,2.07
2018-04-30T15:57:40.724Z,2.00
2018-04-30T16:00:08.268Z,1.80
2018-04-30T16:02:35.798Z,2.83
2018-04-30T16:05:03.321Z,2.77
2018-04-30T16:07:30.831Z,5.90
2018-04-30T16:09:58.346Z,2.90
2018-04-30T16:12:25.963Z,2.73
2018-04-30T16:14:53.479Z,5.80
2018-04-30T16:17:21.045Z,10.70
2018-04-30T16:19:48.651Z,5.83
2018-04-30T16:22:16.188Z,6.80
2018-04-30T16:24:43.773Z,4.17
2018-04-30T16:27:11.287Z,2.97
2018-04-30T16:29:38.894Z,3.57
2018-04-30T16:32:06.405Z,1.93
2018-04-30T16:34:34.008Z,2.17
2018-04-30T16:37:01.569Z,1.03
2018-04-30T16:39:29.142Z,3.33
2018-04-30T16:41:56.652Z,2.30
2018-04-30T16:44:24.170Z,1.33
2018-04-30T16:46:51.678Z,4.50
2018-04-30T16:49:19.278Z,3.67
2018-04-30T16:51:46.792Z,1.10
2018-04-30T16:54:14.351Z,2.73
2018-04-30T16:56:41.867Z,4.33
2018-04-30T16:59:09.372Z,2.63
2018-04-30T17:01:36.899Z,1.73
2018-04-30T17:04:04.524Z,4.47
2018-04-30T17:06:32.057Z,2.63
2018-04-30T17:08:59.579Z,2.17
2018-04-30T17:11:27.091Z,1.13
2018-04-30T17:13:54.605Z,0.90
2018-04-30T17:16:22.120Z,4.63
2018-04-30T17:18:49.650Z,3.20
2018-04-30T17:21:17.178Z,1.87
2018-04-30T17:23:44.731Z,1.97
2018-04-30T17:26:12.267Z,1.23
2018-04-30T17:28:39.849Z,2.97
2018-04-30T17:31:07.394Z,2.57
2018-04-30T17:33:34.903Z,1.13
2018-04-30T17:36:02.429Z,3.33
2018-04-30T17:38:29.963Z,1.97
2018-04-30T17:40:57.563Z,2.63
2018-04-30T17:43:25.039Z,1.80
2018-04-30T17:45:52.564Z,1.27
2018-04-30T17:48:20.089Z,0.73
2018-04-30T17:50:47.657Z,1.63
2018-04-30T17:53:15.169Z,3.23
2018-04-30T17:55:42.694Z,1.37
2018-04-30T17:58:10.211Z,1.40
2018-04-30T18:00:37.741Z,3.27
2018-04-30T18:03:05.275Z,3.23
2018-04-30T18:05:32.794Z,1.57
2018-04-30T18:08:00.307Z,2.50
2018-04-30T18:10:27.831Z,2.73
2018-04-30T18:12:55.354Z,1.20
2018-04-30T18:15:22.869Z,2.03
2018-04-30T18:17:50.388Z,1.17
2018-04-30T18:20:17.980Z,1.20
2018-04-30T18:22:45.495Z,4.27
2018-04-30T18:25:13.011Z,2.03
2018-04-30T18:27:40.526Z,2.37
2018-04-30T18:30:08.053Z,1.53
2018-04-30T18:32:35.640Z,1.20
2018-04-30T18:35:03.224Z,1.67
2018-04-30T18:37:30.807Z,1.97
2018-04-30T18:39:58.327Z,3.73
2018-04-30T18:42:25.855Z,1.90
2018-04-30T18:44:53.393Z,1.97
2018-04-30T18:47:20.922Z,2.13
2018-04-30T18:49:48.443Z,2.30
2018-04-30T18:52:15.969Z,2.10
2018-04-30T18:54:43.501Z,3.50
2018-04-30T18:57:11.019Z,2.63
2018-04-30T18:59:38.539Z,3.63
2018-04-30T19:02:06.073Z,3.30
2018-04-30T19:04:33.616Z,3.20
2018-04-30T19:07:01.157Z,3.30
2018-04-30T19:09:28.677Z,3.90
2018-04-30T19:11:56.206Z,2.33
2018-04-30T19:14:23.749Z,5.17
2018-04-30T19:16:51.266Z,3.50
2018-04-30T19:19:18.811Z,5.90
2018-04-30T19:21:46.371Z,3.73
2018-04-30T19:24:13.925Z,3.90
2018-04-30T19:26:41.469Z,3.13
2018-04-30T19:29:09.013Z,4.07
2018-04-30T19:31:36.533Z,5.33
2018-04-30T19:34:04.073Z,6.63
2018-04-30T19:36:31.635Z,6.00
2018-04-30T19:38:59.299Z,3.40
2018-04-30T19:41:26.834Z,4.80
2018-04-30T19:43:54.352Z,4.10
2018-04-30T19:46:21.882Z,2.20
2018-04-30T19:48:49.392Z,3.47
2018-04-30T19:51:16.906Z,2.70
2018-04-30T19:53:44.583Z,3.90
2018-04-30T19:56:12.114Z,4.27
2018-04-30T19:58:39.664Z,6.87
2018-04-30T20:01:07.206Z,4.17
2018-04-30T20:03:34.856Z,7.83
2018-04-30T20:06:02.400Z,6.63
2018-04-30T20:08:29.925Z,5.60
2018-04-30T20:10:57.451Z,5.50
2018-04-30T20:13:24.976Z,6.20
2018-04-30T20:15:52.525Z,6.73
2018-04-30T20:18:20.072Z,6.43
2018-04-30T20:20:47.600Z,5.80
2018-04-30T21:45:12.104Z,9.30
2018-04-30T21:47:39.624Z,7.10
2018-04-30T21:50:07.156Z,5.60
2018-04-30T21:52:34.690Z,6.90
2018-04-30T21:55:02.204Z,5.87
2018-04-30T21:57:29.731Z,7.80
2018-04-30T21:59:57.261Z,5.40
2018-04-30T22:02:24.780Z,7.63
2018-04-30T22:04:52.311Z,6.97
2018-04-30T22:07:19.851Z,5.63
2018-04-30T22:09:47.388Z,7.90
2018-04-30T22:12:14.900Z,5.23
2018-04-30T22:14:42.415Z,5.50
2018-04-30T22:17:09.931Z,5.63
2018-04-30T22:19:37.450Z,7.53
2018-04-30T22:22:04.958Z,6.17
2018-04-30T22:24:32.589Z,5.47
2018-04-30T22:27:00.114Z,6.03
2018-04-30T22:29:27.687Z,6.10
2018-04-30T22:31:55.200Z,5.93
2018-04-30T22:34:22.721Z,5.63
2018-04-30T22:36:50.260Z,5.83
2018-04-30T22:39:17.771Z,7.43
2018-04-30T22:41:45.298Z,6.30
2018-04-30T22:44:12.829Z,6.17
2018-04-30T22:46:40.343Z,5.43
2018-04-30T22:49:07.865Z,6.57
2018-04-30T22:51:35.376Z,5.53
2018-04-30T22:54:02.896Z,7.03
2018-04-30T22:56:30.426Z,7.43
2018-04-30T22:58:57.941Z,6.57
2018-04-30T23:01:25.474Z,7.20
2018-04-30T23:03:52.988Z,6.10
2018-04-30T23:06:20.507Z,7.70
2018-04-30T23:08:48.020Z,5.53
2018-04-30T23:11:15.537Z,8.93
2018-04-30T23:13:43.057Z,9.63
2018-04-30T23:16:10.569Z,7.63
2018-04-30T23:18:38.092Z,7.67
2018-04-30T23:21:05.612Z,11.53
2018-04-30T23:23:33.137Z,6.57
2018-04-30T23:26:00.652Z,10.00
2018-04-30T23:28:28.165Z,5.93
2018-04-30T23:30:55.684Z,7.57
2018-04-30T23:33:23.204Z,7.20
2018-04-30T23:35:50.728Z,9.67
2018-04-30T23:38:18.261Z,6.63
2018-04-30T23:40:45.791Z,8.80
2018-04-30T23:43:13.304Z,5.60
2018-04-30T23:45:40.833Z,6.13
2018-04-30T23:48:08.353Z,6.50
2018-04-30T23:50:35.880Z,7.57
2018-04-30T23:53:03.420Z,5.93
2018-04-30T23:55:30.944Z,8.43
2018-04-30T23:57:58.462Z,5.47
